sensor_id;sensor_type;location;lat;lon;timestamp;P1;durP1;ratioP1;P2;durP2;ratioP2
67063;SDS011;58476;48.072;11.970;2022-12-08T00:00:53;12.23;;;3.63;;
67063;SDS011;58476;48.072;11.970;2022-12-08T00:03:19;6.65;;;3.78;;
67063;SDS011;58476;48.072;11.970;2022-12-08T00:05:44;10.30;;;3.90;;
67063;SDS011;58476;48.072;11.970;2022-12-08T00:08:11;7.53;;;3.72;;
67063;SDS011;58476;48.072;11.970;2022-12-08T00:10:36;11.38;;;4.05;;
67063;SDS011;58476;48.072;11.970;2022-12-08T00:13:02;9.23;;;3.85;;
67063;SDS011;58476;48.072;11.970;2022-12-08T00:15:27;8.60;;;3.58;;
67063;SDS011;58476;48.072;11.970;2022-12-08T00:17:52;6.88;;;3.47;;
67063;SDS011;58476;48.072;11.970;2022-12-08T00:20:18;7.50;;;3.83;;
67063;SDS011;58476;48.072;11.970;2022-12-08T00:22:43;7.47;;;3.92;;
67063;SDS011;58476;48.072;11.970;2022-12-08T00:25:08;6.13;;;3.80;;
67063;SDS011;58476;48.072;11.970;2022-12-08T00:27:34;6.13;;;3.40;;
67063;SDS011;58476;48.072;11.970;2022-12-08T00:29:59;6.20;;;3.70;;
67063;SDS011;58476;48.072;11.970;2022-12-08T00:32:24;8.20;;;3.35;;
67063;SDS011;58476;48.072;11.970;2022-12-08T00:34:50;6.55;;;3.50;;
67063;SDS011;58476;48.072;11.970;2022-12-08T00:37:15;4.85;;;3.22;;
67063;SDS011;58476;48.072;11.970;2022-12-08T00:39:40;5.88;;;3.30;;
67063;SDS011;58476;48.072;11.970;2022-12-08T00:42:06;5.15;;;3.20;;
67063;SDS011;58476;48.072;11.970;2022-12-08T00:44:32;4.72;;;3.30;;
67063;SDS011;58476;48.072;11.970;2022-12-08T00:46:57;4.93;;;3.25;;
67063;SDS011;58476;48.072;11.970;2022-12-08T00:49:23;7.30;;;3.35;;
67063;SDS011;58476;48.072;11.970;2022-12-08T00:51:48;4.65;;;3.10;;
67063;SDS011;58476;48.072;11.970;2022-12-08T00:54:14;5.03;;;3.20;;
67063;SDS011;58476;48.072;11.970;2022-12-08T00:56:40;5.70;;;3.30;;
67063;SDS011;58476;48.072;11.970;2022-12-08T00:59:05;7.53;;;3.13;;
67063;SDS011;58476;48.072;11.970;2022-12-08T01:01:31;7.18;;;3.60;;
67063;SDS011;58476;48.072;11.970;2022-12-08T01:03:57;5.45;;;4.03;;
67063;SDS011;58476;48.072;11.970;2022-12-08T01:06:26;5.35;;;3.40;;
67063;SDS011;58476;48.072;11.970;2022-12-08T01:08:52;6.15;;;3.30;;
67063;SDS011;58476;48.072;11.970;2022-12-08T01:11:17;4.85;;;3.20;;
67063;SDS011;58476;48.072;11.970;2022-12-08T01:13:43;5.28;;;3.33;;
67063;SDS011;58476;48.072;11.970;2022-12-08T01:16:10;5.72;;;3.47;;
67063;SDS011;58476;48.072;11.970;2022-12-08T01:18:43;5.60;;;3.38;;
67063;SDS011;58476;48.072;11.970;2022-12-08T01:21:08;7.57;;;3.65;;
67063;SDS011;58476;48.072;11.970;2022-12-08T01:23:34;5.60;;;3.30;;
67063;SDS011;58476;48.072;11.970;2022-12-08T01:26:03;5.68;;;3.42;;
67063;SDS011;58476;48.072;11.970;2022-12-08T01:28:30;6.13;;;3.63;;
67063;SDS011;58476;48.072;11.970;2022-12-08T01:30:56;5.15;;;3.80;;
67063;SDS011;58476;48.072;11.970;2022-12-08T01:33:22;6.50;;;3.80;;
67063;SDS011;58476;48.072;11.970;2022-12-08T01:35:48;5.65;;;3.20;;
67063;SDS011;58476;48.072;11.970;2022-12-08T01:38:13;6.20;;;3.47;;
67063;SDS011;58476;48.072;11.970;2022-12-08T01:40:39;5.45;;;3.28;;
67063;SDS011;58476;48.072;11.970;2022-12-08T01:43:04;6.63;;;3.67;;
67063;SDS011;58476;48.072;11.970;2022-12-08T01:45:30;5.68;;;3.25;;
67063;SDS011;58476;48.072;11.970;2022-12-08T01:47:57;4.90;;;3.40;;
67063;SDS011;58476;48.072;11.970;2022-12-08T01:50:28;4.40;;;3.22;;
67063;SDS011;58476;48.072;11.970;2022-12-08T01:52:58;4.93;;;3.15;;
67063;SDS011;58476;48.072;11.970;2022-12-08T01:55:34;5.50;;;3.55;;
67063;SDS011;58476;48.072;11.970;2022-12-08T01:58:10;5.10;;;3.38;;
67063;SDS011;58476;48.072;11.970;2022-12-08T02:00:40;4.68;;;3.10;;
67063;SDS011;58476;48.072;11.970;2022-12-08T02:03:07;4.80;;;3.15;;
67063;SDS011;58476;48.072;11.970;2022-12-08T02:05:37;4.10;;;3.00;;
67063;SDS011;58476;48.072;11.970;2022-12-08T02:08:08;4.63;;;3.25;;
67063;SDS011;58476;48.072;11.970;2022-12-08T02:10:37;4.30;;;3.10;;
67063;SDS011;58476;48.072;11.970;2022-12-08T02:13:04;4.82;;;3.05;;
67063;SDS011;58476;48.072;11.970;2022-12-08T02:23:36;4.45;;;3.17;;
67063;SDS011;58476;48.072;11.970;2022-12-08T02:36:51;5.55;;;3.10;;
67063;SDS011;58476;48.072;11.970;2022-12-08T02:39:24;4.25;;;2.92;;
67063;SDS011;58476;48.072;11.970;2022-12-08T02:44:47;7.57;;;3.08;;
67063;SDS011;58476;48.072;11.970;2022-12-08T02:47:19;5.22;;;3.15;;
67063;SDS011;58476;48.072;11.970;2022-12-08T02:49:47;5.63;;;3.28;;
67063;SDS011;58476;48.072;11.970;2022-12-08T02:54:38;5.90;;;3.30;;
67063;SDS011;58476;48.072;11.970;2022-12-08T03:02:21;4.78;;;2.90;;
67063;SDS011;58476;48.072;11.970;2022-12-08T03:10:11;4.18;;;2.90;;
67063;SDS011;58476;48.072;11.970;2022-12-08T03:12:51;4.85;;;3.10;;
67063;SDS011;58476;48.072;11.970;2022-12-08T03:15:22;5.18;;;3.15;;
67063;SDS011;58476;48.072;11.970;2022-12-08T03:17:51;4.13;;;3.00;;
67063;SDS011;58476;48.072;11.970;2022-12-08T03:21:32;4.13;;;3.15;;
67063;SDS011;58476;48.072;11.970;2022-12-08T03:23:59;3.60;;;2.80;;
67063;SDS011;58476;48.072;11.970;2022-12-08T03:26:29;4.43;;;3.00;;
67063;SDS011;58476;48.072;11.970;2022-12-08T03:29:00;4.72;;;3.00;;
67063;SDS011;58476;48.072;11.970;2022-12-08T03:31:26;5.13;;;3.10;;
67063;SDS011;58476;48.072;11.970;2022-12-08T03:33:55;4.38;;;3.08;;
67063;SDS011;58476;48.072;11.970;2022-12-08T03:36:22;4.00;;;2.80;;
67063;SDS011;58476;48.072;11.970;2022-12-08T03:38:50;4.18;;;2.70;;
67063;SDS011;58476;48.072;11.970;2022-12-08T03:41:16;5.22;;;3.00;;
67063;SDS011;58476;48.072;11.970;2022-12-08T03:43:42;4.13;;;2.95;;
67063;SDS011;58476;48.072;11.970;2022-12-08T03:46:19;3.92;;;2.83;;
67063;SDS011;58476;48.072;11.970;2022-12-08T03:48:46;4.13;;;2.92;;
67063;SDS011;58476;48.072;11.970;2022-12-08T03:51:12;4.43;;;2.90;;
67063;SDS011;58476;48.072;11.970;2022-12-08T03:53:38;5.00;;;2.88;;
67063;SDS011;58476;48.072;11.970;2022-12-08T03:56:25;4.07;;;2.95;;
67063;SDS011;58476;48.072;11.970;2022-12-08T03:58:52;4.10;;;3.10;;
67063;SDS011;58476;48.072;11.970;2022-12-08T04:01:18;4.32;;;2.92;;
67063;SDS011;58476;48.072;11.970;2022-12-08T04:03:43;4.28;;;2.83;;
67063;SDS011;58476;48.072;11.970;2022-12-08T04:06:08;4.10;;;2.85;;
67063;SDS011;58476;48.072;11.970;2022-12-08T04:08:34;3.33;;;2.65;;
67063;SDS011;58476;48.072;11.970;2022-12-08T04:11:00;4.28;;;2.70;;
67063;SDS011;58476;48.072;11.970;2022-12-08T04:13:25;5.18;;;3.15;;
67063;SDS011;58476;48.072;11.970;2022-12-08T04:15:50;3.67;;;2.75;;
67063;SDS011;58476;48.072;11.970;2022-12-08T04:18:16;3.70;;;2.80;;
67063;SDS011;58476;48.072;11.970;2022-12-08T04:20:42;4.75;;;3.10;;
67063;SDS011;58476;48.072;11.970;2022-12-08T04:23:09;4.80;;;3.05;;
67063;SDS011;58476;48.072;11.970;2022-12-08T04:25:35;4.28;;;2.90;;
67063;SDS011;58476;48.072;11.970;2022-12-08T04:28:01;4.10;;;2.88;;
67063;SDS011;58476;48.072;11.970;2022-12-08T04:30:27;4.82;;;3.15;;
67063;SDS011;58476;48.072;11.970;2022-12-08T04:32:53;4.78;;;2.88;;
67063;SDS011;58476;48.072;11.970;2022-12-08T04:35:18;3.88;;;2.92;;
67063;SDS011;58476;48.072;11.970;2022-12-08T04:37:43;5.38;;;3.10;;
67063;SDS011;58476;48.072;11.970;2022-12-08T04:40:09;4.80;;;3.25;;
67063;SDS011;58476;48.072;11.970;2022-12-08T04:42:36;3.50;;;2.65;;
67063;SDS011;58476;48.072;11.970;2022-12-08T04:45:02;5.30;;;2.85;;
67063;SDS011;58476;48.072;11.970;2022-12-08T04:47:27;4.78;;;3.10;;
67063;SDS011;58476;48.072;11.970;2022-12-08T04:49:53;6.30;;;3.05;;
67063;SDS011;58476;48.072;11.970;2022-12-08T04:52:18;8.40;;;3.25;;
67063;SDS011;58476;48.072;11.970;2022-12-08T04:54:43;11.00;;;3.33;;
67063;SDS011;58476;48.072;11.970;2022-12-08T04:57:09;14.48;;;3.00;;
67063;SDS011;58476;48.072;11.970;2022-12-08T04:59:34;8.65;;;2.90;;
67063;SDS011;58476;48.072;11.970;2022-12-08T05:02:00;7.22;;;3.03;;
67063;SDS011;58476;48.072;11.970;2022-12-08T05:04:26;12.32;;;3.95;;
67063;SDS011;58476;48.072;11.970;2022-12-08T05:06:51;9.13;;;3.22;;
67063;SDS011;58476;48.072;11.970;2022-12-08T05:09:16;7.55;;;2.95;;
67063;SDS011;58476;48.072;11.970;2022-12-08T05:11:42;9.15;;;3.33;;
67063;SDS011;58476;48.072;11.970;2022-12-08T05:14:08;8.80;;;3.65;;
67063;SDS011;58476;48.072;11.970;2022-12-08T05:16:36;15.40;;;3.80;;
67063;SDS011;58476;48.072;11.970;2022-12-08T05:19:02;7.50;;;3.05;;
67063;SDS011;58476;48.072;11.970;2022-12-08T05:21:28;9.40;;;3.20;;
67063;SDS011;58476;48.072;11.970;2022-12-08T05:23:53;16.50;;;3.58;;
67063;SDS011;58476;48.072;11.970;2022-12-08T05:26:19;8.60;;;3.40;;
67063;SDS011;58476;48.072;11.970;2022-12-08T05:28:44;7.78;;;3.35;;
67063;SDS011;58476;48.072;11.970;2022-12-08T05:31:13;10.82;;;3.33;;
67063;SDS011;58476;48.072;11.970;2022-12-08T05:33:39;9.43;;;3.17;;
67063;SDS011;58476;48.072;11.970;2022-12-08T05:36:05;8.00;;;3.25;;
67063;SDS011;58476;48.072;11.970;2022-12-08T05:38:31;12.18;;;3.20;;
67063;SDS011;58476;48.072;11.970;2022-12-08T05:40:56;5.55;;;3.15;;
67063;SDS011;58476;48.072;11.970;2022-12-08T05:43:22;12.95;;;3.80;;
67063;SDS011;58476;48.072;11.970;2022-12-08T05:45:47;9.85;;;3.20;;
67063;SDS011;58476;48.072;11.970;2022-12-08T05:48:12;8.07;;;3.75;;
67063;SDS011;58476;48.072;11.970;2022-12-08T05:50:38;7.35;;;3.30;;
67063;SDS011;58476;48.072;11.970;2022-12-08T05:53:04;5.85;;;3.25;;
67063;SDS011;58476;48.072;11.970;2022-12-08T05:55:29;8.93;;;3.85;;
67063;SDS011;58476;48.072;11.970;2022-12-08T05:57:55;15.90;;;4.18;;
67063;SDS011;58476;48.072;11.970;2022-12-08T06:00:20;19.25;;;3.95;;
67063;SDS011;58476;48.072;11.970;2022-12-08T06:02:46;15.52;;;4.10;;
67063;SDS011;58476;48.072;11.970;2022-12-08T06:05:11;16.25;;;3.60;;
67063;SDS011;58476;48.072;11.970;2022-12-08T06:07:36;19.73;;;3.65;;
67063;SDS011;58476;48.072;11.970;2022-12-08T06:10:02;11.73;;;4.05;;
67063;SDS011;58476;48.072;11.970;2022-12-08T06:12:28;17.02;;;3.60;;
67063;SDS011;58476;48.072;11.970;2022-12-08T06:14:53;16.58;;;4.47;;
67063;SDS011;58476;48.072;11.970;2022-12-08T06:17:19;15.88;;;3.30;;
67063;SDS011;58476;48.072;11.970;2022-12-08T06:19:44;12.40;;;4.70;;
67063;SDS011;58476;48.072;11.970;2022-12-08T06:22:09;8.95;;;3.65;;
67063;SDS011;58476;48.072;11.970;2022-12-08T06:24:35;10.38;;;3.83;;
67063;SDS011;58476;48.072;11.970;2022-12-08T06:27:00;8.05;;;3.30;;
67063;SDS011;58476;48.072;11.970;2022-12-08T06:29:25;5.93;;;3.25;;
67063;SDS011;58476;48.072;11.970;2022-12-08T06:31:51;8.23;;;3.70;;
67063;SDS011;58476;48.072;11.970;2022-12-08T06:34:16;9.80;;;4.03;;
67063;SDS011;58476;48.072;11.970;2022-12-08T06:36:41;8.40;;;3.67;;
67063;SDS011;58476;48.072;11.970;2022-12-08T06:39:07;8.40;;;3.80;;
67063;SDS011;58476;48.072;11.970;2022-12-08T06:41:33;11.63;;;3.70;;
67063;SDS011;58476;48.072;11.970;2022-12-08T06:43:59;15.07;;;6.00;;
67063;SDS011;58476;48.072;11.970;2022-12-08T06:46:24;12.55;;;4.00;;
67063;SDS011;58476;48.072;11.970;2022-12-08T06:48:49;11.43;;;4.13;;
67063;SDS011;58476;48.072;11.970;2022-12-08T06:51:16;14.35;;;4.57;;
67063;SDS011;58476;48.072;11.970;2022-12-08T06:53:43;13.63;;;4.05;;
67063;SDS011;58476;48.072;11.970;2022-12-08T06:56:10;13.32;;;4.00;;
67063;SDS011;58476;48.072;11.970;2022-12-08T06:58:36;19.63;;;4.25;;
67063;SDS011;58476;48.072;11.970;2022-12-08T07:01:03;22.15;;;4.43;;
67063;SDS011;58476;48.072;11.970;2022-12-08T07:03:29;9.05;;;3.90;;
67063;SDS011;58476;48.072;11.970;2022-12-08T07:05:55;14.90;;;3.92;;
67063;SDS011;58476;48.072;11.970;2022-12-08T07:08:20;10.20;;;3.60;;
67063;SDS011;58476;48.072;11.970;2022-12-08T07:10:46;11.25;;;3.63;;
67063;SDS011;58476;48.072;11.970;2022-12-08T07:13:11;18.50;;;4.10;;
67063;SDS011;58476;48.072;11.970;2022-12-08T07:15:36;9.85;;;3.97;;
67063;SDS011;58476;48.072;11.970;2022-12-08T07:18:02;16.73;;;4.93;;
67063;SDS011;58476;48.072;11.970;2022-12-08T07:20:27;13.80;;;3.95;;
67063;SDS011;58476;48.072;11.970;2022-12-08T07:22:53;17.55;;;4.53;;
67063;SDS011;58476;48.072;11.970;2022-12-08T07:25:18;12.65;;;4.28;;
67063;SDS011;58476;48.072;11.970;2022-12-08T07:27:44;15.70;;;4.03;;
67063;SDS011;58476;48.072;11.970;2022-12-08T07:30:10;27.40;;;3.97;;
67063;SDS011;58476;48.072;11.970;2022-12-08T07:32:37;12.18;;;3.55;;
67063;SDS011;58476;48.072;11.970;2022-12-08T07:35:03;19.10;;;4.43;;
67063;SDS011;58476;48.072;11.970;2022-12-08T07:37:29;16.83;;;4.22;;
67063;SDS011;58476;48.072;11.970;2022-12-08T07:39:57;16.63;;;4.43;;
67063;SDS011;58476;48.072;11.970;2022-12-08T07:42:22;14.02;;;4.28;;
67063;SDS011;58476;48.072;11.970;2022-12-08T07:44:47;18.30;;;4.32;;
67063;SDS011;58476;48.072;11.970;2022-12-08T07:47:13;19.45;;;4.45;;
67063;SDS011;58476;48.072;11.970;2022-12-08T07:49:38;26.50;;;5.32;;
67063;SDS011;58476;48.072;11.970;2022-12-08T07:52:03;22.88;;;4.70;;
67063;SDS011;58476;48.072;11.970;2022-12-08T07:54:29;23.58;;;4.25;;
67063;SDS011;58476;48.072;11.970;2022-12-08T07:56:56;22.35;;;4.72;;
67063;SDS011;58476;48.072;11.970;2022-12-08T07:59:21;25.40;;;4.78;;
67063;SDS011;58476;48.072;11.970;2022-12-08T08:01:47;18.75;;;4.30;;
67063;SDS011;58476;48.072;11.970;2022-12-08T08:04:12;21.23;;;4.22;;
67063;SDS011;58476;48.072;11.970;2022-12-08T08:06:37;31.50;;;5.22;;
67063;SDS011;58476;48.072;11.970;2022-12-08T08:09:03;20.02;;;5.65;;
67063;SDS011;58476;48.072;11.970;2022-12-08T08:11:28;21.20;;;5.15;;
67063;SDS011;58476;48.072;11.970;2022-12-08T08:13:54;18.92;;;4.47;;
67063;SDS011;58476;48.072;11.970;2022-12-08T08:16:21;29.55;;;4.95;;
67063;SDS011;58476;48.072;11.970;2022-12-08T08:18:46;32.60;;;5.85;;
67063;SDS011;58476;48.072;11.970;2022-12-08T08:21:13;20.30;;;4.85;;
67063;SDS011;58476;48.072;11.970;2022-12-08T08:23:38;28.45;;;6.40;;
67063;SDS011;58476;48.072;11.970;2022-12-08T08:26:04;23.42;;;4.72;;
67063;SDS011;58476;48.072;11.970;2022-12-08T08:28:29;29.40;;;5.20;;
67063;SDS011;58476;48.072;11.970;2022-12-08T08:30:55;37.72;;;4.80;;
67063;SDS011;58476;48.072;11.970;2022-12-08T08:33:21;17.00;;;4.43;;
67063;SDS011;58476;48.072;11.970;2022-12-08T08:35:46;23.67;;;4.40;;
67063;SDS011;58476;48.072;11.970;2022-12-08T08:38:12;28.77;;;4.10;;
67063;SDS011;58476;48.072;11.970;2022-12-08T08:40:37;17.90;;;4.75;;
67063;SDS011;58476;48.072;11.970;2022-12-08T08:43:03;23.30;;;4.20;;
67063;SDS011;58476;48.072;11.970;2022-12-08T08:45:29;20.95;;;4.20;;
67063;SDS011;58476;48.072;11.970;2022-12-08T08:47:55;18.85;;;4.07;;
67063;SDS011;58476;48.072;11.970;2022-12-08T08:50:20;17.23;;;4.45;;
67063;SDS011;58476;48.072;11.970;2022-12-08T08:52:46;21.70;;;4.38;;
67063;SDS011;58476;48.072;11.970;2022-12-08T08:55:11;18.65;;;4.50;;
67063;SDS011;58476;48.072;11.970;2022-12-08T08:57:36;27.15;;;4.97;;
67063;SDS011;58476;48.072;11.970;2022-12-08T09:00:02;15.25;;;5.07;;
67063;SDS011;58476;48.072;11.970;2022-12-08T09:02:29;15.40;;;3.70;;
67063;SDS011;58476;48.072;11.970;2022-12-08T09:04:54;17.23;;;4.72;;
67063;SDS011;58476;48.072;11.970;2022-12-08T09:07:20;25.05;;;4.30;;
67063;SDS011;58476;48.072;11.970;2022-12-08T09:09:45;13.45;;;3.92;;
67063;SDS011;58476;48.072;11.970;2022-12-08T09:12:11;16.23;;;3.88;;
67063;SDS011;58476;48.072;11.970;2022-12-08T09:14:37;20.55;;;4.43;;
67063;SDS011;58476;48.072;11.970;2022-12-08T09:17:02;10.70;;;3.70;;
67063;SDS011;58476;48.072;11.970;2022-12-08T09:19:28;18.73;;;4.65;;
67063;SDS011;58476;48.072;11.970;2022-12-08T09:21:53;20.77;;;3.38;;
67063;SDS011;58476;48.072;11.970;2022-12-08T09:24:18;18.58;;;3.78;;
67063;SDS011;58476;48.072;11.970;2022-12-08T09:26:44;13.13;;;3.47;;
67063;SDS011;58476;48.072;11.970;2022-12-08T09:29:10;15.07;;;3.35;;
67063;SDS011;58476;48.072;11.970;2022-12-08T09:31:36;16.75;;;3.67;;
67063;SDS011;58476;48.072;11.970;2022-12-08T09:34:02;8.50;;;2.95;;
67063;SDS011;58476;48.072;11.970;2022-12-08T09:36:29;12.00;;;3.60;;
67063;SDS011;58476;48.072;11.970;2022-12-08T09:38:54;9.43;;;2.97;;
67063;SDS011;58476;48.072;11.970;2022-12-08T09:46:36;11.27;;;3.13;;
67063;SDS011;58476;48.072;11.970;2022-12-08T09:49:03;16.98;;;3.75;;
67063;SDS011;58476;48.072;11.970;2022-12-08T09:51:32;16.52;;;3.60;;
67063;SDS011;58476;48.072;11.970;2022-12-08T09:54:06;9.40;;;3.30;;
67063;SDS011;58476;48.072;11.970;2022-12-08T09:56:39;12.77;;;3.25;;
67063;SDS011;58476;48.072;11.970;2022-12-08T10:01:36;8.40;;;3.03;;
67063;SDS011;58476;48.072;11.970;2022-12-08T10:04:03;6.60;;;2.95;;
67063;SDS011;58476;48.072;11.970;2022-12-08T10:06:58;7.15;;;3.05;;
67063;SDS011;58476;48.072;11.970;2022-12-08T10:09:51;6.82;;;2.90;;
67063;SDS011;58476;48.072;11.970;2022-12-08T10:12:27;9.38;;;3.20;;
67063;SDS011;58476;48.072;11.970;2022-12-08T10:17:50;15.65;;;4.25;;
67063;SDS011;58476;48.072;11.970;2022-12-08T10:20:18;7.32;;;3.10;;
67063;SDS011;58476;48.072;11.970;2022-12-08T10:22:45;8.25;;;2.50;;
67063;SDS011;58476;48.072;11.970;2022-12-08T10:27:43;13.57;;;3.50;;
67063;SDS011;58476;48.072;11.970;2022-12-08T10:30:13;8.20;;;3.03;;
67063;SDS011;58476;48.072;11.970;2022-12-08T10:32:41;10.05;;;3.00;;
67063;SDS011;58476;48.072;11.970;2022-12-08T10:35:10;10.35;;;2.70;;
67063;SDS011;58476;48.072;11.970;2022-12-08T10:37:37;6.65;;;2.63;;
67063;SDS011;58476;48.072;11.970;2022-12-08T10:40:13;7.32;;;3.05;;
67063;SDS011;58476;48.072;11.970;2022-12-08T10:42:42;9.23;;;2.80;;
67063;SDS011;58476;48.072;11.970;2022-12-08T10:47:43;8.88;;;2.90;;
67063;SDS011;58476;48.072;11.970;2022-12-08T10:53:18;5.70;;;2.40;;
67063;SDS011;58476;48.072;11.970;2022-12-08T10:55:50;5.75;;;2.55;;
67063;SDS011;58476;48.072;11.970;2022-12-08T10:58:37;10.13;;;2.90;;
67063;SDS011;58476;48.072;11.970;2022-12-08T11:03:50;4.63;;;2.65;;
67063;SDS011;58476;48.072;11.970;2022-12-08T11:06:19;6.60;;;2.47;;
67063;SDS011;58476;48.072;11.970;2022-12-08T11:08:50;7.13;;;2.67;;
67063;SDS011;58476;48.072;11.970;2022-12-08T11:11:18;8.07;;;2.80;;
67063;SDS011;58476;48.072;11.970;2022-12-08T11:13:46;5.93;;;2.72;;
67063;SDS011;58476;48.072;11.970;2022-12-08T11:16:14;4.95;;;2.78;;
67063;SDS011;58476;48.072;11.970;2022-12-08T11:18:42;7.35;;;2.92;;
67063;SDS011;58476;48.072;11.970;2022-12-08T11:21:14;3.20;;;2.22;;
67063;SDS011;58476;48.072;11.970;2022-12-08T11:23:45;6.10;;;2.58;;
67063;SDS011;58476;48.072;11.970;2022-12-08T11:28:45;6.03;;;2.50;;
67063;SDS011;58476;48.072;11.970;2022-12-08T11:31:33;5.07;;;2.45;;
67063;SDS011;58476;48.072;11.970;2022-12-08T11:34:05;5.47;;;2.50;;
67063;SDS011;58476;48.072;11.970;2022-12-08T11:36:42;3.88;;;2.33;;
67063;SDS011;58476;48.072;11.970;2022-12-08T11:39:08;7.05;;;2.47;;
67063;SDS011;58476;48.072;11.970;2022-12-08T11:41:37;7.68;;;2.45;;
67063;SDS011;58476;48.072;11.970;2022-12-08T11:44:15;3.25;;;2.20;;
67063;SDS011;58476;48.072;11.970;2022-12-08T11:47:05;4.30;;;2.50;;
67063;SDS011;58476;48.072;11.970;2022-12-08T11:49:37;4.32;;;2.10;;
67063;SDS011;58476;48.072;11.970;2022-12-08T11:52:06;4.25;;;2.30;;
67063;SDS011;58476;48.072;11.970;2022-12-08T11:54:56;3.58;;;2.25;;
67063;SDS011;58476;48.072;11.970;2022-12-08T11:57:26;4.63;;;2.53;;
67063;SDS011;58476;48.072;11.970;2022-12-08T11:59:53;4.90;;;2.38;;
67063;SDS011;58476;48.072;11.970;2022-12-08T12:02:25;4.22;;;2.55;;
67063;SDS011;58476;48.072;11.970;2022-12-08T12:05:04;3.42;;;2.33;;
67063;SDS011;58476;48.072;11.970;2022-12-08T12:07:40;5.53;;;2.63;;
67063;SDS011;58476;48.072;11.970;2022-12-08T12:10:27;5.72;;;2.60;;
67063;SDS011;58476;48.072;11.970;2022-12-08T12:13:21;4.80;;;2.30;;
67063;SDS011;58476;48.072;11.970;2022-12-08T12:16:15;2.60;;;2.10;;
67063;SDS011;58476;48.072;11.970;2022-12-08T12:19:09;4.13;;;2.40;;
67063;SDS011;58476;48.072;11.970;2022-12-08T12:21:42;3.55;;;2.15;;
67063;SDS011;58476;48.072;11.970;2022-12-08T12:29:56;5.05;;;2.28;;
67063;SDS011;58476;48.072;11.970;2022-12-08T12:32:24;17.50;;;2.70;;
67063;SDS011;58476;48.072;11.970;2022-12-08T12:35:03;10.40;;;2.45;;
67063;SDS011;58476;48.072;11.970;2022-12-08T12:37:38;12.52;;;2.60;;
67063;SDS011;58476;48.072;11.970;2022-12-08T12:40:11;6.90;;;2.17;;
67063;SDS011;58476;48.072;11.970;2022-12-08T12:42:47;3.97;;;2.10;;
67063;SDS011;58476;48.072;11.970;2022-12-08T12:45:34;7.03;;;2.42;;
67063;SDS011;58476;48.072;11.970;2022-12-08T12:52:57;4.18;;;2.30;;
67063;SDS011;58476;48.072;11.970;2022-12-08T12:55:25;6.13;;;2.40;;
67063;SDS011;58476;48.072;11.970;2022-12-08T12:57:53;4.45;;;2.40;;
67063;SDS011;58476;48.072;11.970;2022-12-08T13:00:24;7.80;;;2.22;;
67063;SDS011;58476;48.072;11.970;2022-12-08T13:02:52;7.22;;;2.33;;
67063;SDS011;58476;48.072;11.970;2022-12-08T13:05:21;17.15;;;3.92;;
67063;SDS011;58476;48.072;11.970;2022-12-08T13:07:51;8.30;;;2.47;;
67063;SDS011;58476;48.072;11.970;2022-12-08T13:10:37;14.23;;;3.15;;
67063;SDS011;58476;48.072;11.970;2022-12-08T13:13:05;10.80;;;2.70;;
67063;SDS011;58476;48.072;11.970;2022-12-08T13:15:40;16.45;;;3.83;;
67063;SDS011;58476;48.072;11.970;2022-12-08T13:18:26;17.00;;;2.90;;
67063;SDS011;58476;48.072;11.970;2022-12-08T13:26:09;13.88;;;2.30;;
67063;SDS011;58476;48.072;11.970;2022-12-08T13:34:17;13.63;;;2.97;;
67063;SDS011;58476;48.072;11.970;2022-12-08T13:39:25;11.40;;;2.85;;
67063;SDS011;58476;48.072;11.970;2022-12-08T13:41:57;12.35;;;2.33;;
67063;SDS011;58476;48.072;11.970;2022-12-08T13:48:50;10.93;;;2.25;;
67063;SDS011;58476;48.072;11.970;2022-12-08T13:51:22;8.10;;;2.20;;
67063;SDS011;58476;48.072;11.970;2022-12-08T13:53:56;7.63;;;2.50;;
67063;SDS011;58476;48.072;11.970;2022-12-08T13:56:26;8.80;;;2.50;;
67063;SDS011;58476;48.072;11.970;2022-12-08T13:59:05;9.52;;;2.47;;
67063;SDS011;58476;48.072;11.970;2022-12-08T14:01:31;5.82;;;2.05;;
67063;SDS011;58476;48.072;11.970;2022-12-08T14:04:00;9.32;;;2.33;;
67063;SDS011;58476;48.072;11.970;2022-12-08T14:06:27;13.07;;;2.47;;
67063;SDS011;58476;48.072;11.970;2022-12-08T14:08:57;9.20;;;2.25;;
67063;SDS011;58476;48.072;11.970;2022-12-08T14:11:26;7.15;;;2.20;;
67063;SDS011;58476;48.072;11.970;2022-12-08T14:16:39;9.97;;;2.20;;
67063;SDS011;58476;48.072;11.970;2022-12-08T14:19:29;5.95;;;2.20;;
67063;SDS011;58476;48.072;11.970;2022-12-08T14:22:17;9.10;;;2.10;;
67063;SDS011;58476;48.072;11.970;2022-12-08T14:24:44;7.63;;;2.20;;
67063;SDS011;58476;48.072;11.970;2022-12-08T14:27:12;5.05;;;2.30;;
67063;SDS011;58476;48.072;11.970;2022-12-08T14:32:20;7.32;;;2.50;;
67063;SDS011;58476;48.072;11.970;2022-12-08T14:34:54;11.77;;;2.60;;
67063;SDS011;58476;48.072;11.970;2022-12-08T14:37:35;5.65;;;2.30;;
67063;SDS011;58476;48.072;11.970;2022-12-08T14:40:06;7.88;;;2.60;;
67063;SDS011;58476;48.072;11.970;2022-12-08T14:42:44;8.00;;;2.63;;
67063;SDS011;58476;48.072;11.970;2022-12-08T14:45:12;8.65;;;2.60;;
67063;SDS011;58476;48.072;11.970;2022-12-08T14:47:39;5.40;;;2.70;;
67063;SDS011;58476;48.072;11.970;2022-12-08T14:50:35;9.13;;;2.53;;
67063;SDS011;58476;48.072;11.970;2022-12-08T14:53:01;10.60;;;2.70;;
67063;SDS011;58476;48.072;11.970;2022-12-08T14:55:27;5.70;;;2.50;;
67063;SDS011;58476;48.072;11.970;2022-12-08T14:57:58;6.20;;;2.55;;
67063;SDS011;58476;48.072;11.970;2022-12-08T15:00:24;7.82;;;2.20;;
67063;SDS011;58476;48.072;11.970;2022-12-08T15:02:50;17.83;;;6.70;;
67063;SDS011;58476;48.072;11.970;2022-12-08T15:05:17;9.15;;;4.10;;
67063;SDS011;58476;48.072;11.970;2022-12-08T15:12:58;17.48;;;5.03;;
67063;SDS011;58476;48.072;11.970;2022-12-08T15:15:24;12.95;;;4.63;;
67063;SDS011;58476;48.072;11.970;2022-12-08T15:21:06;16.10;;;4.50;;
67063;SDS011;58476;48.072;11.970;2022-12-08T15:23:43;14.63;;;4.03;;
67063;SDS011;58476;48.072;11.970;2022-12-08T15:26:21;28.98;;;6.50;;
67063;SDS011;58476;48.072;11.970;2022-12-08T15:28:47;19.13;;;4.85;;
67063;SDS011;58476;48.072;11.970;2022-12-08T15:31:13;14.95;;;4.40;;
67063;SDS011;58476;48.072;11.970;2022-12-08T15:33:38;14.23;;;4.32;;
67063;SDS011;58476;48.072;11.970;2022-12-08T15:36:04;13.63;;;4.43;;
67063;SDS011;58476;48.072;11.970;2022-12-08T15:38:29;21.08;;;5.45;;
67063;SDS011;58476;48.072;11.970;2022-12-08T15:40:55;13.77;;;4.50;;
67063;SDS011;58476;48.072;11.970;2022-12-08T15:43:21;14.68;;;4.45;;
67063;SDS011;58476;48.072;11.970;2022-12-08T15:45:47;11.00;;;4.40;;
67063;SDS011;58476;48.072;11.970;2022-12-08T15:48:23;11.85;;;4.53;;
67063;SDS011;58476;48.072;11.970;2022-12-08T15:50:50;12.13;;;4.20;;
67063;SDS011;58476;48.072;11.970;2022-12-08T15:53:15;10.35;;;3.72;;
67063;SDS011;58476;48.072;11.970;2022-12-08T15:55:42;12.20;;;5.20;;
67063;SDS011;58476;48.072;11.970;2022-12-08T15:58:14;9.80;;;3.80;;
67063;SDS011;58476;48.072;11.970;2022-12-08T16:00:42;14.60;;;3.80;;
67063;SDS011;58476;48.072;11.970;2022-12-08T16:03:17;15.57;;;4.53;;
67063;SDS011;58476;48.072;11.970;2022-12-08T16:05:44;13.05;;;4.50;;
67063;SDS011;58476;48.072;11.970;2022-12-08T16:08:11;20.92;;;6.40;;
67063;SDS011;58476;48.072;11.970;2022-12-08T16:10:38;18.80;;;5.90;;
67063;SDS011;58476;48.072;11.970;2022-12-08T16:13:04;19.40;;;5.00;;
67063;SDS011;58476;48.072;11.970;2022-12-08T16:15:30;16.63;;;5.95;;
67063;SDS011;58476;48.072;11.970;2022-12-08T16:17:59;18.38;;;4.88;;